Time;durP1;ratioP1;P1;durP2;ratioP2;P2;SDS_P1;SDS_P2;PMS_P1;PMS_P2;Temp;Humidity;BMP_temperature;BMP_pressure;BME280_temperature;BME280_humidity;BME280_pressure;Samples;Min_cycle;Max_cycle;Signal;HPM_P1;HPM_P2
2022/01/20 00:03:35;;;;;;;65.90;34.60;;;;;;;;;;5033356;28;19911;-79
2022/01/20 00:28:02;;;;;;;62.80;34.42;;;;;;;;;;5043186;28;20109;-79
2022/01/20 00:33:14;;;;;;;58.03;30.88;;;;;;;;;;5039053;28;20020;-78
2022/01/20 00:38:20;;;;;;;83.10;40.35;;;;;;;;;;5040050;28;20081;-77
2022/01/20 00:40:46;;;;;;;63.85;31.83;;;;;;;;;;5047516;28;20449;-79
2022/01/20 00:43:11;;;;;;;62.15;30.63;;;;;;;;;;5047247;28;20082;-79
2022/01/20 00:45:37;;;;;;;48.90;23.42;;;;;;;;;;5046648;28;20562;-78
2022/01/20 00:48:02;;;;;;;52.50;25.80;;;;;;;;;;5046538;28;20020;-78
2022/01/20 00:50:27;;;;;;;50.08;27.33;;;;;;;;;;5047298;28;20468;-79
2022/01/20 00:52:53;;;;;;;47.58;25.20;;;;;;;;;;5047073;28;20032;-80
2022/01/20 00:55:18;;;;;;;55.83;29.27;;;;;;;;;;5047465;28;20108;-78
2022/01/20 00:57:44;;;;;;;71.07;34.78;;;;;;;;;;5047110;28;20028;-81
2022/01/20 01:00:10;;;;;;;85.72;43.70;;;;;;;;;;5044826;28;20074;-80
2022/01/20 01:02:36;;;;;;;90.82;42.78;;;;;;;;;;5048240;28;20020;-78
2022/01/20 01:05:02;;;;;;;83.20;40.60;;;;;;;;;;5047049;28;20021;-79
2022/01/20 01:09:59;;;;;;;106.20;51.20;;;;;;;;;;5047715;28;20034;-79
2022/01/20 01:12:37;;;;;;;128.02;63.08;;;;;;;;;;5045628;28;20060;-80
2022/01/20 01:15:06;;;;;;;143.90;67.97;;;;;;;;;;5047045;28;20030;-79
2022/01/20 01:20:15;;;;;;;112.43;53.63;;;;;;;;;;5046662;28;20441;-78
2022/01/20 01:22:41;;;;;;;62.58;31.42;;;;;;;;;;5036209;28;20048;-79
2022/01/20 01:25:08;;;;;;;36.28;16.42;;;;;;;;;;5035422;28;20106;-78
2022/01/20 01:27:38;;;;;;;89.68;44.10;;;;;;;;;;5057641;28;20024;-78
2022/01/20 01:30:15;;;;;;;82.72;38.20;;;;;;;;;;5055513;28;20111;-79
2022/01/20 01:33:13;;;;;;;75.22;34.53;;;;;;;;;;5055307;28;20028;-78
2022/01/20 01:35:33;;;;;;;39.90;18.52;;;;;;;;;;5054166;28;20032;-78
2022/01/20 01:40:32;;;;;;;20.48;10.38;;;;;;;;;;5056258;28;20098;-78
2022/01/20 01:42:58;;;;;;;20.38;10.88;;;;;;;;;;5047498;28;20119;-77
2022/01/20 01:45:26;;;;;;;24.25;11.90;;;;;;;;;;5034841;28;20119;-78
2022/01/20 01:47:52;;;;;;;24.80;12.38;;;;;;;;;;5034895;28;20108;-78
2022/01/20 01:50:17;;;;;;;30.33;16.38;;;;;;;;;;5034766;28;20131;-78
2022/01/20 01:52:42;;;;;;;32.38;18.77;;;;;;;;;;5034883;28;20456;-77
2022/01/20 01:55:08;;;;;;;40.67;21.40;;;;;;;;;;5034526;28;20064;-78
2022/01/20 01:57:34;;;;;;;45.80;24.80;;;;;;;;;;5034727;28;20021;-79
2022/01/20 01:59:59;;;;;;;51.70;24.45;;;;;;;;;;5034794;28;20024;-77
2022/01/20 02:02:25;;;;;;;44.67;22.05;;;;;;;;;;5036246;28;20040;-78
2022/01/20 02:04:51;;;;;;;59.88;32.08;;;;;;;;;;5034594;28;20056;-81
2022/01/20 02:18:00;;;;;;;26.25;13.70;;;;;;;;;;5036013;28;20060;-79
2022/01/20 02:20:26;;;;;;;27.75;15.45;;;;;;;;;;5034248;28;20021;-79
2022/01/20 02:22:51;;;;;;;31.50;16.15;;;;;;;;;;5040327;28;20243;-78
2022/01/20 02:25:18;;;;;;;31.58;15.75;;;;;;;;;;5054316;28;20479;-79
2022/01/20 02:27:43;;;;;;;29.52;15.27;;;;;;;;;;5054218;28;20141;-79
2022/01/20 02:30:09;;;;;;;28.15;14.20;;;;;;;;;;5039811;28;20116;-78
2022/01/20 02:32:34;;;;;;;23.30;13.60;;;;;;;;;;5050611;28;20055;-79
2022/01/20 02:35:00;;;;;;;27.35;12.63;;;;;;;;;;5053678;28;20670;-78
2022/01/20 02:37:25;;;;;;;29.63;14.82;;;;;;;;;;5054262;28;20119;-79
2022/01/20 02:40:29;;;;;;;25.10;13.00;;;;;;;;;;5054465;28;20051;-79
2022/01/20 02:45:31;;;;;;;20.80;11.25;;;;;;;;;;5055048;28;20039;-77
2022/01/20 02:47:57;;;;;;;24.20;11.35;;;;;;;;;;5053543;28;20025;-79
2022/01/20 02:50:22;;;;;;;24.88;11.50;;;;;;;;;;5055020;28;20029;-79
2022/01/20 02:52:47;;;;;;;31.40;14.50;;;;;;;;;;5054918;28;20036;-78
2022/01/20 02:55:13;;;;;;;31.02;15.10;;;;;;;;;;5054101;28;20032;-78
2022/01/20 02:57:38;;;;;;;28.45;14.07;;;;;;;;;;5053544;28;20046;-79
2022/01/20 03:00:05;;;;;;;31.83;15.75;;;;;;;;;;5053125;28;20784;-80
2022/01/20 03:02:30;;;;;;;22.90;12.25;;;;;;;;;;5034962;28;20032;-78
2022/01/20 03:04:56;;;;;;;17.48;11.02;;;;;;;;;;5033281;28;20021;-78
2022/01/20 03:07:21;;;;;;;17.95;8.73;;;;;;;;;;5033753;28;20025;-79
2022/01/20 03:09:46;;;;;;;11.68;6.28;;;;;;;;;;5034565;28;20065;-78
2022/01/20 03:12:12;;;;;;;18.35;11.00;;;;;;;;;;5033091;28;20053;-79
2022/01/20 03:14:38;;;;;;;16.30;8.23;;;;;;;;;;5034708;28;20388;-79
2022/01/20 03:17:03;;;;;;;14.25;8.70;;;;;;;;;;5035509;28;20033;-80
2022/01/20 03:19:29;;;;;;;14.68;8.10;;;;;;;;;;5034642;28;20055;-77
2022/01/20 03:21:54;;;;;;;23.65;11.82;;;;;;;;;;5035339;28;20032;-78
2022/01/20 03:24:19;;;;;;;26.33;13.80;;;;;;;;;;5033234;28;20025;-78
2022/01/20 03:26:45;;;;;;;22.73;12.75;;;;;;;;;;5034184;28;20043;-78
2022/01/20 03:29:10;;;;;;;29.63;14.77;;;;;;;;;;5033180;28;20093;-79
2022/01/20 03:31:36;;;;;;;25.20;12.93;;;;;;;;;;5041949;28;20024;-79
2022/01/20 03:34:01;;;;;;;52.55;26.92;;;;;;;;;;5052904;28;20454;-80
2022/01/20 03:36:27;;;;;;;54.13;25.02;;;;;;;;;;5054149;28;20119;-79
2022/01/20 03:38:52;;;;;;;41.05;19.15;;;;;;;;;;5053159;28;20448;-78
2022/01/20 03:41:18;;;;;;;19.50;11.00;;;;;;;;;;5055466;28;20020;-78
2022/01/20 03:43:44;;;;;;;18.63;9.82;;;;;;;;;;5053025;28;20028;-79
2022/01/20 03:46:12;;;;;;;20.50;10.63;;;;;;;;;;5053651;28;20028;-79
2022/01/20 03:48:49;;;;;;;19.92;10.15;;;;;;;;;;5051063;28;20376;-80
2022/01/20 03:51:14;;;;;;;18.58;9.65;;;;;;;;;;5033152;28;20448;-80
2022/01/20 03:53:39;;;;;;;31.52;13.43;;;;;;;;;;5033688;28;20036;-79
2022/01/20 03:56:05;;;;;;;22.38;12.40;;;;;;;;;;5032902;28;20047;-79
2022/01/20 03:58:31;;;;;;;23.55;11.82;;;;;;;;;;5034751;28;20029;-79
2022/01/20 04:00:56;;;;;;;23.00;11.48;;;;;;;;;;5032448;28;20067;-79
2022/01/20 04:03:22;;;;;;;28.08;13.57;;;;;;;;;;5033392;28;20032;-79
2022/01/20 04:05:56;;;;;;;34.70;16.15;;;;;;;;;;5035300;28;20419;-80
2022/01/20 04:08:26;;;;;;;37.60;15.48;;;;;;;;;;5034397;28;20414;-79
2022/01/20 04:10:51;;;;;;;31.50;15.63;;;;;;;;;;5032609;28;20036;-80
2022/01/20 04:13:18;;;;;;;36.05;16.35;;;;;;;;;;5038496;28;20408;-79
2022/01/20 04:15:43;;;;;;;32.22;13.38;;;;;;;;;;5037765;28;20025;-79
2022/01/20 04:18:11;;;;;;;25.92;11.02;;;;;;;;;;5036941;28;20036;-79
2022/01/20 04:20:37;;;;;;;35.53;18.73;;;;;;;;;;5036635;28;20025;-79
2022/01/20 04:23:02;;;;;;;33.58;17.02;;;;;;;;;;5037772;28;20017;-80
2022/01/20 04:25:28;;;;;;;37.78;16.63;;;;;;;;;;5037030;28;20025;-80
2022/01/20 04:27:53;;;;;;;23.30;11.55;;;;;;;;;;5036577;28;20457;-78
2022/01/20 04:30:18;;;;;;;27.85;12.48;;;;;;;;;;5038195;28;20028;-79
2022/01/20 04:32:44;;;;;;;34.30;13.88;;;;;;;;;;5054307;28;20032;-78
2022/01/20 04:35:09;;;;;;;34.53;16.23;;;;;;;;;;5056534;28;20032;-79
2022/01/20 04:37:35;;;;;;;28.80;13.40;;;;;;;;;;5056131;28;20875;-79
2022/01/20 04:40:02;;;;;;;26.67;13.15;;;;;;;;;;5058074;28;20031;-79
2022/01/20 04:42:29;;;;;;;19.42;9.25;;;;;;;;;;5055638;28;20097;-79
2022/01/20 04:45:03;;;;;;;37.75;19.17;;;;;;;;;;5056148;28;20024;-78
2022/01/20 04:58:15;;;;;;;27.85;14.98;;;;;;;;;;5057038;28;20094;-79
2022/01/20 05:00:41;;;;;;;40.38;23.05;;;;;;;;;;5057706;28;20028;-78
2022/01/20 05:03:06;;;;;;;65.38;35.58;;;;;;;;;;5056231;28;20047;-79
2022/01/20 05:05:35;;;;;;;74.65;40.35;;;;;;;;;;5055902;28;20078;-78
2022/01/20 05:08:01;;;;;;;67.75;32.25;;;;;;;;;;5056269;28;20452;-78
2022/01/20 05:10:30;;;;;;;95.03;44.42;;;;;;;;;;5057458;28;20048;-77
2022/01/20 05:15:21;;;;;;;66.35;32.53;;;;;;;;;;5057415;28;20043;-81
2022/01/20 05:17:46;;;;;;;48.22;23.90;;;;;;;;;;5055752;28;20028;-77
2022/01/20 05:20:12;;;;;;;44.65;22.70;;;;;;;;;;5055799;28;20055;-78
2022/01/20 05:22:37;;;;;;;40.70;20.00;;;;;;;;;;5056481;28;20020;-77
2022/01/20 05:25:03;;;;;;;33.67;15.43;;;;;;;;;;5056843;28;20047;-77
2022/01/20 05:27:29;;;;;;;71.68;36.47;;;;;;;;;;5056779;28;20027;-79
2022/01/20 05:29:55;;;;;;;69.93;33.30;;;;;;;;;;5055500;28;20024;-74
2022/01/20 05:32:21;;;;;;;66.85;32.53;;;;;;;;;;5056039;28;20632;-79
2022/01/20 05:34:46;;;;;;;51.63;26.50;;;;;;;;;;5056945;28;20020;-78
2022/01/20 05:37:12;;;;;;;29.70;14.43;;;;;;;;;;5055815;28;20028;-77
2022/01/20 05:39:37;;;;;;;177.50;86.68;;;;;;;;;;5056403;28;20028;-78
2022/01/20 05:42:03;;;;;;;225.15;136.25;;;;;;;;;;5057073;28;20597;-78
2022/01/20 05:44:28;;;;;;;349.75;179.85;;;;;;;;;;5055387;28;20031;-80
2022/01/20 05:46:54;;;;;;;159.82;78.53;;;;;;;;;;5042845;28;20033;-79
2022/01/20 05:49:22;;;;;;;68.93;36.10;;;;;;;;;;5035145;28;20025;-78
2022/01/20 05:51:52;;;;;;;158.02;88.65;;;;;;;;;;5035270;28;20029;-79
2022/01/20 05:54:18;;;;;;;104.15;56.35;;;;;;;;;;5034813;28;20078;-79
2022/01/20 05:56:43;;;;;;;81.88;42.03;;;;;;;;;;5036588;28;20715;-79
2022/01/20 05:59:09;;;;;;;85.65;42.55;;;;;;;;;;5034876;28;20029;-78
2022/01/20 06:01:37;;;;;;;195.90;94.95;;;;;;;;;;5034616;28;20080;-79
2022/01/20 06:04:02;;;;;;;121.50;60.53;;;;;;;;;;5034902;28;20120;-78
2022/01/20 06:06:27;;;;;;;153.18;75.95;;;;;;;;;;5034850;28;20108;-77
2022/01/20 06:08:53;;;;;;;84.10;40.75;;;;;;;;;;5034396;28;20055;-79
2022/01/20 06:11:18;;;;;;;158.65;73.80;;;;;;;;;;5034352;28;20032;-78
2022/01/20 06:13:44;;;;;;;165.25;69.50;;;;;;;;;;5034141;28;20056;-78
2022/01/20 06:16:10;;;;;;;135.77;65.93;;;;;;;;;;5034190;28;20476;-78
2022/01/20 06:18:35;;;;;;;90.88;47.10;;;;;;;;;;5034384;28;20032;-78
2022/01/20 06:21:01;;;;;;;104.53;54.50;;;;;;;;;;5034053;28;20029;-78
2022/01/20 06:23:26;;;;;;;122.05;65.40;;;;;;;;;;5036086;28;20051;-78
2022/01/20 06:25:52;;;;;;;257.23;100.97;;;;;;;;;;5034095;28;20033;-79
2022/01/20 06:28:17;;;;;;;161.98;81.82;;;;;;;;;;5036061;28;20025;-77
2022/01/20 06:30:43;;;;;;;125.38;63.88;;;;;;;;;;5038509;28;20467;-77
2022/01/20 06:33:09;;;;;;;121.45;66.20;;;;;;;;;;5056422;28;20028;-77
2022/01/20 06:35:35;;;;;;;112.32;64.80;;;;;;;;;;5055000;28;20112;-77
2022/01/20 06:38:00;;;;;;;104.38;59.72;;;;;;;;;;5055318;28;20025;-77
2022/01/20 06:40:25;;;;;;;97.35;49.17;;;;;;;;;;5054312;28;20531;-77
2022/01/20 06:42:51;;;;;;;91.30;49.35;;;;;;;;;;5055933;28;20030;-77
2022/01/20 06:45:17;;;;;;;91.35;51.08;;;;;;;;;;5054064;28;20375;-77
2022/01/20 06:47:43;;;;;;;87.35;47.83;;;;;;;;;;5054958;28;20467;-78
2022/01/20 06:50:09;;;;;;;105.10;59.13;;;;;;;;;;5055245;28;20016;-76
2022/01/20 06:52:35;;;;;;;95.55;51.38;;;;;;;;;;5055532;28;20020;-77
2022/01/20 06:55:05;;;;;;;72.75;38.50;;;;;;;;;;5055313;28;20017;-78
2022/01/20 06:57:30;;;;;;;86.97;44.35;;;;;;;;;;5055421;28;20037;-74
2022/01/20 06:59:55;;;;;;;48.97;26.65;;;;;;;;;;5055037;28;20031;-78
2022/01/20 07:02:21;;;;;;;55.63;28.75;;;;;;;;;;5054314;28;20035;-78
2022/01/20 07:04:47;;;;;;;67.70;35.03;;;;;;;;;;5054781;28;20116;-77
2022/01/20 07:07:13;;;;;;;80.75;38.78;;;;;;;;;;5034990;28;20040;-77
2022/01/20 07:09:39;;;;;;;88.57;48.03;;;;;;;;;;5045716;28;20461;-78
2022/01/20 07:12:06;;;;;;;63.47;33.60;;;;;;;;;;5043014;28;20093;-76
2022/01/20 07:14:31;;;;;;;67.18;34.65;;;;;;;;;;5044545;28;20025;-77
2022/01/20 07:16:57;;;;;;;53.90;27.67;;;;;;;;;;5043023;28;20468;-77
2022/01/20 07:19:22;;;;;;;48.22;26.48;;;;;;;;;;5045515;28;20379;-77
2022/01/20 07:21:48;;;;;;;61.17;30.58;;;;;;;;;;5043364;28;20121;-77
2022/01/20 07:24:13;;;;;;;58.00;30.02;;;;;;;;;;5044420;28;20049;-74
2022/01/20 07:26:39;;;;;;;49.28;24.73;;;;;;;;;;5043858;28;20020;-76
2022/01/20 07:29:04;;;;;;;79.53;47.08;;;;;;;;;;5044627;28;20037;-77
2022/01/20 07:31:30;;;;;;;86.43;49.63;;;;;;;;;;5043975;28;20524;-77
2022/01/20 07:33:55;;;;;;;89.65;48.85;;;;;;;;;;5039941;28;20071;-76
2022/01/20 07:36:20;;;;;;;118.95;54.70;;;;;;;;;;5033277;28;20029;-76
2022/01/20 07:38:49;;;;;;;103.75;56.17;;;;;;;;;;5033307;28;20017;-76
2022/01/20 07:41:15;;;;;;;76.07;43.65;;;;;;;;;;5033691;28;20016;-78
2022/01/20 07:43:40;;;;;;;64.28;36.53;;;;;;;;;;5033643;28;20079;-77
2022/01/20 07:46:06;;;;;;;53.70;28.38;;;;;;;;;;5034427;28;20754;-78
2022/01/20 07:48:31;;;;;;;65.88;37.03;;;;;;;;;;5035354;28;20024;-76
2022/01/20 07:50:57;;;;;;;62.47;33.03;;;;;;;;;;5033986;28;20029;-77
2022/01/20 07:53:22;;;;;;;39.08;23.23;;;;;;;;;;5034762;28;21045;-77
2022/01/20 07:55:48;;;;;;;41.92;26.63;;;;;;;;;;5035791;28;20036;-78
2022/01/20 07:58:13;;;;;;;97.93;50.03;;;;;;;;;;5043800;28;20063;-77
2022/01/20 08:00:38;;;;;;;95.18;48.85;;;;;;;;;;5045646;28;20024;-76
2022/01/20 08:03:04;;;;;;;90.93;49.45;;;;;;;;;;5048775;28;20074;-75
2022/01/20 08:05:29;;;;;;;111.70;61.15;;;;;;;;;;5047078;28;20024;-77
2022/01/20 08:07:54;;;;;;;67.63;35.72;;;;;;;;;;5050695;28;20031;-77
2022/01/20 08:10:20;;;;;;;51.30;27.58;;;;;;;;;;5039724;28;20068;-77
2022/01/20 08:12:45;;;;;;;48.15;26.20;;;;;;;;;;5044827;28;20143;-77
2022/01/20 08:15:12;;;;;;;52.80;28.95;;;;;;;;;;5053739;28;20030;-75
2022/01/20 08:17:39;;;;;;;84.38;48.97;;;;;;;;;;5053779;28;20028;-77
2022/01/20 08:20:05;;;;;;;93.78;56.13;;;;;;;;;;5052463;28;20022;-77
2022/01/20 08:22:34;;;;;;;102.60;56.42;;;;;;;;;;5052402;28;20483;-77
2022/01/20 08:24:59;;;;;;;126.05;77.28;;;;;;;;;;5054699;28;20035;-76
2022/01/20 08:27:25;;;;;;;84.25;52.60;;;;;;;;;;5052734;28;20702;-76
2022/01/20 08:29:50;;;;;;;61.42;38.78;;;;;;;;;;5053502;28;20021;-79
2022/01/20 08:32:16;;;;;;;87.15;51.00;;;;;;;;;;5054394;28;20052;-79
2022/01/20 08:34:45;;;;;;;87.90;58.10;;;;;;;;;;5053375;28;20021;-78
2022/01/20 08:37:10;;;;;;;80.53;51.03;;;;;;;;;;5053665;28;20036;-78
2022/01/20 08:42:04;;;;;;;113.13;62.63;;;;;;;;;;5054401;28;20028;-79
2022/01/20 08:44:29;;;;;;;42.33;20.38;;;;;;;;;;5054192;28;20368;-77
2022/01/20 08:46:57;;;;;;;60.55;26.52;;;;;;;;;;5054575;28;20036;-79
2022/01/20 08:49:23;;;;;;;28.50;17.42;;;;;;;;;;5053206;28;20036;-78
2022/01/20 08:51:49;;;;;;;24.60;15.18;;;;;;;;;;5053362;28;20024;-78
2022/01/20 08:54:14;;;;;;;107.82;54.33;;;;;;;;;;5053105;28;20170;-80
2022/01/20 08:56:40;;;;;;;35.53;16.45;;;;;;;;;;5053168;28;20067;-78
2022/01/20 08:59:09;;;;;;;28.80;6.10;;;;;;;;;;5056592;28;20035;-78
2022/01/20 09:01:35;;;;;;;13.50;7.95;;;;;;;;;;5057042;28;20460;-79
2022/01/20 09:04:01;;;;;;;10.95;7.15;;;;;;;;;;5059068;28;20032;-78
2022/01/20 09:06:26;;;;;;;27.65;11.85;;;;;;;;;;5056728;28;20036;-78
2022/01/20 09:08:52;;;;;;;24.23;13.65;;;;;;;;;;5056467;28;20030;-78
2022/01/20 09:11:19;;;;;;;18.52;12.40;;;;;;;;;;5056644;28;20032;-78
2022/01/20 09:16:29;;;;;;;10.27;6.45;;;;;;;;;;5058107;28;20043;-77
2022/01/20 09:18:55;;;;;;;8.48;4.78;;;;;;;;;;5054480;28;20020;-76
2022/01/20 09:21:23;;;;;;;7.55;5.07;;;;;;;;;;5048645;28;20029;-74
2022/01/20 09:23:48;;;;;;;7.57;5.30;;;;;;;;;;5038583;28;20021;-76
2022/01/20 09:26:14;;;;;;;11.32;7.18;;;;;;;;;;5042072;28;20798;-76
2022/01/20 09:28:39;;;;;;;13.10;7.53;;;;;;;;;;5055889;28;20123;-77
2022/01/20 09:31:06;;;;;;;10.00;7.43;;;;;;;;;;5057516;28;20474;-76
2022/01/20 09:33:31;;;;;;;13.05;7.93;;;;;;;;;;5056913;28;20028;-78
2022/01/20 09:35:58;;;;;;;19.20;10.65;;;;;;;;;;5055553;28;20028;-78
2022/01/20 09:38:24;;;;;;;14.30;8.18;;;;;;;;;;5055487;28;20032;-77
2022/01/20 09:40:49;;;;;;;13.60;7.53;;;;;;;;;;5058410;28;20024;-77
2022/01/20 09:43:15;;;;;;;15.75;9.75;;;;;;;;;;5055937;28;20109;-78
2022/01/20 09:45:40;;;;;;;27.77;15.85;;;;;;;;;;5055961;28;20060;-78
2022/01/20 09:48:06;;;;;;;16.35;11.18;;;;;;;;;;5055722;28;20070;-75
2022/01/20 09:50:32;;;;;;;22.17;13.77;;;;;;;;;;5055388;28;21016;-74
2022/01/20 09:52:59;;;;;;;34.70;20.85;;;;;;;;;;5056776;28;20024;-76
2022/01/20 09:55:25;;;;;;;13.57;7.43;;;;;;;;;;5055248;28;20024;-76
2022/01/20 09:57:51;;;;;;;17.23;11.77;;;;;;;;;;5045933;28;20013;-75
2022/01/20 10:00:17;;;;;;;15.55;7.90;;;;;;;;;;5044990;28;20481;-77
2022/01/20 10:03:10;;;;;;;10.68;6.30;;;;;;;;;;5045737;28;20017;-77
2022/01/20 10:05:42;;;;;;;14.02;9.15;;;;;;;;;;5049087;28;20054;-78
2022/01/20 10:08:09;;;;;;;15.32;8.98;;;;;;;;;;5042619;28;20043;-74
2022/01/20 10:10:35;;;;;;;8.88;4.95;;;;;;;;;;5054455;28;20486;-75
2022/01/20 10:13:05;;;;;;;11.30;7.20;;;;;;;;;;5049416;28;20131;-75
2022/01/20 10:15:30;;;;;;;12.27;6.90;;;;;;;;;;5046659;28;20021;-75
2022/01/20 10:18:08;;;;;;;27.45;13.27;;;;;;;;;;5044438;28;20025;-75
2022/01/20 10:20:33;;;;;;;46.15;20.45;;;;;;;;;;5041461;28;20063;-74
2022/01/20 10:22:59;;;;;;;12.40;6.40;;;;;;;;;;5037255;28;20056;-75
2022/01/20 10:25:25;;;;;;;11.20;6.70;;;;;;;;;;5034768;28;20402;-74
2022/01/20 10:27:52;;;;;;;11.02;6.47;;;;;;;;;;5035070;28;20841;-75
2022/01/20 10:30:17;;;;;;;66.22;32.58;;;;;;;;;;5036366;28;20021;-74
2022/01/20 10:32:45;;;;;;;49.08;25.70;;;;;;;;;;5053670;28;20833;-74
2022/01/20 10:35:11;;;;;;;21.27;11.85;;;;;;;;;;5056482;28;20939;-74
2022/01/20 10:37:41;;;;;;;32.08;18.77;;;;;;;;;;5054849;28;20043;-74
2022/01/20 10:40:11;;;;;;;21.38;11.95;;;;;;;;;;5056607;28;20055;-75
2022/01/20 10:42:41;;;;;;;17.42;12.70;;;;;;;;;;5055257;28;20482;-75
2022/01/20 10:45:07;;;;;;;15.63;10.25;;;;;;;;;;5055959;28;20413;-75
2022/01/20 10:47:36;;;;;;;16.90;11.35;;;;;;;;;;5056152;28;20032;-75
2022/01/20 10:50:12;;;;;;;15.15;10.77;;;;;;;;;;5056549;28;20028;-75
2022/01/20 10:52:38;;;;;;;12.02;7.57;;;;;;;;;;5057001;28;20020;-74
2022/01/20 10:55:04;;;;;;;15.27;8.77;;;;;;;;;;5054209;28;20032;-75
2022/01/20 10:57:30;;;;;;;17.50;10.88;;;;;;;;;;5054500;28;20071;-76
2022/01/20 10:59:57;;;;;;;23.02;13.82;;;;;;;;;;5056184;28;20096;-75
2022/01/20 11:02:29;;;;;;;13.88;8.93;;;;;;;;;;5056581;28;20024;-75
2022/01/20 11:04:55;;;;;;;19.23;13.02;;;;;;;;;;5055581;28;20024;-76
2022/01/20 11:07:21;;;;;;;18.40;12.73;;;;;;;;;;5054302;28;20025;-75
2022/01/20 11:09:51;;;;;;;15.65;8.52;;;;;;;;;;5052882;28;20056;-75
2022/01/20 11:12:17;;;;;;;34.85;17.88;;;;;;;;;;5053421;28;20510;-74
2022/01/20 11:14:44;;;;;;;18.08;13.13;;;;;;;;;;5054230;28;20633;-74
2022/01/20 11:17:20;;;;;;;16.80;10.38;;;;;;;;;;5053764;28;20082;-75
2022/01/20 11:19:46;;;;;;;20.95;13.38;;;;;;;;;;5054786;28;20016;-74
2022/01/20 11:22:13;;;;;;;16.67;9.70;;;;;;;;;;5054731;28;20025;-76
2022/01/20 11:24:39;;;;;;;14.88;10.63;;;;;;;;;;5055787;28;20020;-75
2022/01/20 11:27:06;;;;;;;13.40;9.60;;;;;;;;;;5055144;28;20029;-74
2022/01/20 11:29:39;;;;;;;10.82;8.30;;;;;;;;;;5055356;28;20024;-74
2022/01/20 11:32:24;;;;;;;14.13;9.77;;;;;;;;;;5055135;28;20024;-74
2022/01/20 11:34:54;;;;;;;10.88;7.85;;;;;;;;;;5053702;28;20119;-75
2022/01/20 11:37:23;;;;;;;;;;;;;;;;;;5055124;28;20032;-75
2022/01/20 11:39:51;;;;;;;13.45;8.80;;;;;;;;;;5053899;28;20343;-75
2022/01/20 11:42:24;;;;;;;8.85;6.50;;;;;;;;;;5055604;28;20020;-75
2022/01/20 11:44:50;;;;;;;14.30;8.50;;;;;;;;;;5053972;28;20081;-75
2022/01/20 11:47:15;;;;;;;14.63;10.30;;;;;;;;;;5053976;28;20032;-75
2022/01/20 11:49:43;;;;;;;14.52;9.70;;;;;;;;;;5053722;28;20685;-75
2022/01/20 11:52:09;;;;;;;13.07;8.60;;;;;;;;;;5055331;28;20036;-75
2022/01/20 11:54:36;;;;;;;12.63;9.05;;;;;;;;;;5053882;28;20024;-74
2022/01/20 11:57:25;;;;;;;9.38;5.43;;;;;;;;;;5053353;28;20033;-75
2022/01/20 11:59:54;;;;;;;12.82;8.75;;;;;;;;;;5049518;28;20165;-75
2022/01/20 12:02:38;;;;;;;7.77;5.03;;;;;;;;;;5055049;28;20070;-75
2022/01/20 12:05:15;;;;;;;15.25;8.73;;;;;;;;;;5054970;28;20032;-75
2022/01/20 12:07:41;;;;;;;10.50;6.78;;;;;;;;;;5054988;28;20133;-75
2022/01/20 12:10:06;;;;;;;18.67;12.32;;;;;;;;;;5055976;28;20107;-75
2022/01/20 12:12:32;;;;;;;14.82;9.35;;;;;;;;;;5053308;28;20557;-75
2022/01/20 12:15:06;;;;;;;13.10;9.43;;;;;;;;;;5054992;28;20028;-75
2022/01/20 12:17:32;;;;;;;16.95;11.27;;;;;;;;;;5055253;28;20040;-74
2022/01/20 12:19:57;;;;;;;14.93;8.57;;;;;;;;;;5053549;28;20024;-75
2022/01/20 12:22:23;;;;;;;14.85;10.32;;;;;;;;;;5054762;28;20367;-74
2022/01/20 12:24:52;;;;;;;15.55;8.93;;;;;;;;;;5054329;28;20100;-75
2022/01/20 12:27:18;;;;;;;14.13;9.20;;;;;;;;;;5053382;28;20033;-75
2022/01/20 12:29:44;;;;;;;26.90;15.40;;;;;;;;;;5053744;28;20059;-74
2022/01/20 12:32:11;;;;;;;23.48;14.00;;;;;;;;;;5053364;28;20507;-75
2022/01/20 12:34:36;;;;;;;26.83;16.17;;;;;;;;;;5058841;28;20025;-75
2022/01/20 12:37:01;;;;;;;28.73;17.00;;;;;;;;;;5058646;28;20478;-74
2022/01/20 12:39:28;;;;;;;28.65;18.40;;;;;;;;;;5058935;28;20387;-76
2022/01/20 12:41:58;;;;;;;23.80;14.48;;;;;;;;;;5057380;28;20021;-75
2022/01/20 12:44:24;;;;;;;24.75;15.18;;;;;;;;;;5056934;28;20634;-75
2022/01/20 12:46:49;;;;;;;13.23;9.05;;;;;;;;;;5057958;28;20484;-75
2022/01/20 12:49:16;;;;;;;19.80;13.07;;;;;;;;;;5056888;28;20028;-76
2022/01/20 12:51:45;;;;;;;20.77;13.65;;;;;;;;;;5056746;28;20047;-76
2022/01/20 12:54:13;;;;;;;12.60;7.60;;;;;;;;;;5058583;28;20471;-76
2022/01/20 12:56:40;;;;;;;12.98;10.07;;;;;;;;;;5056819;28;20052;-76
2022/01/20 12:59:06;;;;;;;11.98;8.43;;;;;;;;;;5058302;28;20024;-75
2022/01/20 13:01:42;;;;;;;9.85;6.30;;;;;;;;;;5056447;28;20081;-77
2022/01/20 13:04:09;;;;;;;13.88;10.27;;;;;;;;;;5056508;28;20107;-77
2022/01/20 13:06:35;;;;;;;31.50;21.83;;;;;;;;;;5059064;28;20020;-75
2022/01/20 13:09:05;;;;;;;20.08;15.07;;;;;;;;;;5056954;28;20024;-75
2022/01/20 13:11:59;;;;;;;37.55;25.67;;;;;;;;;;5056529;28;20107;-76
2022/01/20 13:14:46;;;;;;;16.63;11.30;;;;;;;;;;5057956;28;20017;-76
2022/01/20 13:17:13;;;;;;;8.88;5.60;;;;;;;;;;5056616;28;20032;-75
2022/01/20 13:19:46;;;;;;;17.75;15.07;;;;;;;;;;5057954;28;20440;-74
2022/01/20 13:22:19;;;;;;;19.58;14.40;;;;;;;;;;5056089;28;20033;-76
2022/01/20 13:24:46;;;;;;;19.67;14.52;;;;;;;;;;5056368;28;20463;-74
2022/01/20 13:27:12;;;;;;;15.88;10.32;;;;;;;;;;5055936;28;20032;-76
2022/01/20 13:29:39;;;;;;;10.27;7.82;;;;;;;;;;5057423;28;20353;-74
2022/01/20 13:32:04;;;;;;;14.38;8.27;;;;;;;;;;5052755;28;20353;-74
2022/01/20 13:34:30;;;;;;;9.77;6.47;;;;;;;;;;5035982;28;20194;-75
2022/01/20 13:36:55;;;;;;;7.13;5.70;;;;;;;;;;5037566;28;20036;-74
2022/01/20 13:39:31;;;;;;;10.88;7.50;;;;;;;;;;5036359;28;20017;-75
2022/01/20 13:42:27;;;;;;;23.67;14.88;;;;;;;;;;5036203;28;20111;-75
2022/01/20 13:45:12;;;;;;;24.42;17.92;;;;;;;;;;5037400;28;20021;-75
2022/01/20 13:47:51;;;;;;;14.52;9.50;;;;;;;;;;5037420;28;20111;-75
2022/01/20 13:50:18;;;;;;;18.38;11.85;;;;;;;;;;5035497;28;20104;-75
2022/01/20 13:52:43;;;;;;;15.10;10.48;;;;;;;;;;5035960;28;20025;-75
2022/01/20 13:55:20;;;;;;;25.17;16.95;;;;;;;;;;5035757;28;20028;-76
2022/01/20 13:57:45;;;;;;;25.33;16.55;;;;;;;;;;5035627;28;20044;-75
2022/01/20 14:00:13;;;;;;;18.23;10.90;;;;;;;;;;5037049;28;20029;-74
2022/01/20 14:02:39;;;;;;;22.00;13.10;;;;;;;;;;5035957;28;20704;-76
2022/01/20 14:05:05;;;;;;;24.67;13.85;;;;;;;;;;5035582;28;20384;-75
2022/01/20 14:07:30;;;;;;;20.33;10.20;;;;;;;;;;5036939;28;20047;-76
2022/01/20 14:09:55;;;;;;;34.70;17.92;;;;;;;;;;5036745;28;20510;-75
2022/01/20 14:12:21;;;;;;;24.30;16.63;;;;;;;;;;5035237;28;20568;-75
2022/01/20 14:14:46;;;;;;;37.63;22.75;;;;;;;;;;5035480;28;20716;-75
2022/01/20 14:17:16;;;;;;;29.95;19.38;;;;;;;;;;5033952;28;20032;-75
2022/01/20 14:19:43;;;;;;;47.33;30.33;;;;;;;;;;5036351;28;20030;-76
2022/01/20 14:22:09;;;;;;;60.72;34.50;;;;;;;;;;5035123;28;20032;-76
2022/01/20 14:24:34;;;;;;;49.78;27.77;;;;;;;;;;5037773;28;20375;-75
2022/01/20 14:27:09;;;;;;;63.28;37.78;;;;;;;;;;5036556;28;20036;-75
2022/01/20 14:29:35;;;;;;;34.08;19.70;;;;;;;;;;5036630;28;20025;-76
2022/01/20 14:32:00;;;;;;;46.20;28.73;;;;;;;;;;5048255;28;20081;-76
2022/01/20 14:34:26;;;;;;;23.98;14.88;;;;;;;;;;5056824;28;20539;-75
2022/01/20 14:36:51;;;;;;;54.38;30.90;;;;;;;;;;5056505;28;20460;-75
2022/01/20 14:39:16;;;;;;;23.75;14.50;;;;;;;;;;5054877;28;20479;-74
2022/01/20 14:41:41;;;;;;;19.40;11.40;;;;;;;;;;5054857;28;20460;-75
2022/01/20 14:44:07;;;;;;;21.20;14.48;;;;;;;;;;5055035;28;20524;-76
2022/01/20 14:46:32;;;;;;;33.42;22.55;;;;;;;;;;5056413;28;20444;-75
2022/01/20 14:48:57;;;;;;;26.15;18.67;;;;;;;;;;5054785;28;20021;-76
2022/01/20 14:51:25;;;;;;;15.40;9.10;;;;;;;;;;5055631;28;20029;-74
2022/01/20 14:53:50;;;;;;;14.55;10.75;;;;;;;;;;5055902;28;20034;-76
2022/01/20 14:56:19;;;;;;;31.27;19.77;;;;;;;;;;5053518;28;20036;-75
2022/01/20 14:58:45;;;;;;;23.33;14.77;;;;;;;;;;5055373;28;20044;-76
2022/01/20 15:01:10;;;;;;;46.58;29.55;;;;;;;;;;5054520;28;20089;-75
2022/01/20 15:03:35;;;;;;;14.30;10.13;;;;;;;;;;5056325;28;20028;-75
2022/01/20 15:06:01;;;;;;;13.73;8.45;;;;;;;;;;5053993;28;20111;-75
2022/01/20 15:08:26;;;;;;;14.52;9.55;;;;;;;;;;5055609;28;20020;-75
2022/01/20 15:10:52;;;;;;;16.08;9.38;;;;;;;;;;5054232;28;20078;-75
2022/01/20 15:13:17;;;;;;;28.58;15.77;;;;;;;;;;5055242;28;20530;-77
2022/01/20 15:15:42;;;;;;;20.35;12.45;;;;;;;;;;5055718;28;20047;-76
2022/01/20 15:18:08;;;;;;;12.85;8.50;;;;;;;;;;5054232;28;20035;-76
2022/01/20 15:20:33;;;;;;;13.50;8.93;;;;;;;;;;5055195;28;20025;-76
2022/01/20 15:23:00;;;;;;;14.10;9.48;;;;;;;;;;5054084;28;20024;-76
2022/01/20 15:25:25;;;;;;;16.17;9.73;;;;;;;;;;5054031;28;20020;-75
2022/01/20 15:27:52;;;;;;;24.20;10.57;;;;;;;;;;5055262;28;20031;-76